.
WxDataArchive / Data Records for 2013-11-15
2013-11-14 November 2013 2013-11-16

Data Records for Friday, 15 November 2013

Time	Temp	Chill	HIndex	Humid	Dewpt	 Wind 	HiWind	WindDir	Rain 	Barom 
-----	----	-----	------	-----	-----	------	------	-------	-----	----- 
00:00	42.5	42.5	42.5	39	19.3	1	4	248	0.00	30.059 
00:05	42.6	42.6	42.6	39	19.4	1	4	248	0.00	30.059 
00:10	42.6	42.6	42.6	39	19.4	1	4	248	0.00	30.059 
00:15	42.5	42.5	42.5	40	19.9	0	2	248	0.00	30.052 
00:20	42.5	42.5	42.5	41	20.5	0	4	248	0.00	30.052 
00:25	42.3	42.3	42.3	40	19.7	1	5	248	0.00	30.052 
00:30	42.5	42.5	42.5	40	19.9	1	3	248	0.00	30.054 
00:35	42.3	42.3	42.3	40	19.7	1	3	248	0.00	30.054 
00:40	42.3	42.3	42.3	40	19.7	1	4	248	0.00	30.054 
00:45	42.3	42.3	42.3	40	19.7	1	3	248	0.00	30.057 
00:50	42.3	42.3	42.3	40	19.7	1	6	248	0.00	30.057 
00:55	42.3	42.3	42.3	41	20.3	0	3	248	0.00	30.057 
01:00	42.3	42.3	42.3	41	20.3	1	4	248	0.00	30.052 
01:05	42.2	42.2	42.2	41	20.2	0	4	248	0.00	30.052 
01:10	42.2	42.2	42.2	41	20.2	1	3	248	0.00	30.052 
01:15	42.1	42.1	42.1	41	20.1	1	3	248	0.00	30.047 
01:20	42.1	42.1	42.1	41	20.1	0	2	248	0.00	30.047 
01:25	42.1	42.1	42.1	42	20.7	1	4	248	0.00	30.047 
01:30	41.9	41.9	41.9	42	20.5	0	3	248	0.00	30.046 
01:35	41.9	41.9	41.9	42	20.5	1	4	248	0.00	30.046 
01:40	41.9	41.9	41.9	42	20.5	1	2	248	0.00	30.046 
01:45	41.8	41.8	41.8	42	20.4	0	2	248	0.00	30.047 
01:50	41.8	41.8	41.8	43	21.0	0	3	248	0.00	30.047 
01:55	41.6	41.6	41.6	43	20.8	0	3	248	0.00	30.047 
02:00	41.5	41.5	41.5	43	20.7	1	3	248	0.00	30.047 
02:05	41.5	41.5	41.5	43	20.7	0	3	248	0.00	30.047 
02:10	41.6	41.6	41.6	43	20.8	1	4	248	0.00	30.047 
02:15	41.6	41.6	41.6	43	20.8	0	3	248	0.00	30.045 
02:20	41.5	41.5	41.5	43	20.7	0	2	248	0.00	30.045 
02:25	41.5	41.5	41.5	44	21.2	0	1	248	0.00	30.045 
02:30	41.3	41.3	41.3	44	21.0	0	2	248	0.00	30.048 
02:35	41.3	41.3	41.3	44	21.0	1	4	248	0.00	30.048 
02:40	41.3	41.3	41.3	44	21.0	0	4	248	0.00	30.048 
02:45	41.3	41.3	41.3	45	21.6	0	2	248	0.00	30.048 
02:50	41.3	41.3	41.3	44	21.0	0	2	248	0.00	30.048 
02:55	41.3	41.3	41.3	45	21.6	0	2	248	0.00	30.048 
03:00	41.3	41.3	41.3	45	21.6	0	3	248	0.00	30.049 
03:05	41.3	41.3	41.3	45	21.6	0	5	248	0.00	30.049 
03:10	41.3	41.3	41.3	44	21.0	1	4	248	0.00	30.049 
03:15	41.5	41.5	41.5	45	21.8	0	2	248	0.00	30.044 
03:20	41.5	41.5	41.5	45	21.8	1	3	248	0.00	30.044 
03:25	41.5	41.5	41.5	45	21.8	0	3	248	0.00	30.044 
03:30	41.5	41.5	41.5	45	21.8	0	3	248	0.00	30.043 
03:35	41.6	41.6	41.6	45	21.9	1	5	248	0.00	30.043 
03:40	41.6	41.6	41.6	45	21.9	0	2	248	0.00	30.043 
03:45	41.6	41.6	41.6	45	21.9	1	7	248	0.00	30.040 
03:50	41.6	41.6	41.6	45	21.9	1	4	248	0.00	30.040 
03:55	41.8	41.8	41.8	45	22.0	1	3	248	0.00	30.040 
04:00	41.8	41.8	41.8	44	21.5	0	2	248	0.00	30.034 
04:05	41.9	41.9	41.9	44	21.6	0	3	248	0.00	30.034 
04:10	41.8	41.8	41.8	45	22.0	0	3	248	0.00	30.034 
04:15	41.8	41.8	41.8	44	21.5	1	4	248	0.00	30.038 
04:20	41.9	41.9	41.9	45	22.1	0	3	248	0.00	30.038 
04:25	41.9	41.9	41.9	45	22.1	1	4	248	0.00	30.038 
04:30	41.8	41.8	41.8	45	22.0	0	3	248	0.00	30.036 
04:35	41.8	41.8	41.8	46	22.6	0	2	248	0.00	30.036 
04:40	41.6	41.6	41.6	46	22.4	0	1	248	0.00	30.036 
04:45	41.6	41.6	41.6	46	22.4	0	2	248	0.00	30.042 
04:50	41.6	41.6	41.6	46	22.4	0	2	248	0.00	30.042 
04:55	41.5	41.5	41.5	46	22.3	0	3	248	0.00	30.042 
05:00	41.5	41.5	41.5	47	22.8	0	3	248	0.00	30.042 
05:05	41.5	41.5	41.5	46	22.3	1	3	248	0.00	30.042 
05:10	41.5	41.5	41.5	46	22.3	0	2	248	0.00	30.042 
05:15	41.5	41.5	41.5	46	22.3	0	2	248	0.00	30.044 
05:20	41.5	41.5	41.5	47	22.8	0	2	248	0.00	30.044 
05:25	41.3	41.3	41.3	47	22.6	0	4	248	0.00	30.044 
05:30	41.3	41.3	41.3	46	22.1	0	1	248	0.00	30.044 
05:35	41.3	41.3	41.3	47	22.6	0	2	248	0.00	30.044 
05:40	41.2	41.2	41.2	47	22.5	0	3	248	0.00	30.044 
05:45	41.1	41.1	41.1	47	22.4	0	3	248	0.00	30.048 
05:50	41.1	41.1	41.1	47	22.4	0	2	248	0.00	30.048 
05:55	41.1	41.1	41.1	47	22.4	0	3	248	0.00	30.048 
06:00	41.1	41.1	41.1	47	22.4	0	1	248	0.00	30.041 
06:05	40.9	40.9	40.9	48	22.7	0	2	248	0.00	30.041 
06:10	40.8	40.8	40.8	49	23.1	0	1	248	0.00	30.041 
06:15	40.6	40.6	40.6	48	22.5	0	1	248	0.00	30.044 
06:20	40.6	40.6	40.6	49	23.0	0	1	248	0.00	30.044 
06:25	40.6	40.6	40.6	49	23.0	0	1	248	0.00	30.044 
06:30	40.6	40.6	40.6	49	23.0	0	1	248	0.00	30.050 
06:35	40.6	40.6	40.6	49	23.0	0	1	248	0.00	30.050 
06:40	40.5	40.5	40.5	49	22.9	0	3	248	0.00	30.050 
06:45	40.5	40.5	40.5	49	22.9	0	3	248	0.00	30.045 
06:50	40.6	40.6	40.6	48	22.5	0	2	248	0.00	30.045 
06:55	40.6	40.6	40.6	48	22.5	0	1	248	0.00	30.045 
07:00	40.6	40.6	40.6	48	22.5	0	1	248	0.00	30.046 
07:05	40.5	40.5	40.5	49	22.9	0	2	248	0.00	30.046 
07:10	40.5	40.5	40.5	49	22.9	0	1	248	0.00	30.046 
07:15	40.5	40.5	40.5	48	22.4	0	1	248	0.00	30.053 
07:20	40.5	40.5	40.5	48	22.4	0	2	248	0.00	30.053 
07:25	40.5	40.5	40.5	48	22.4	0	1	248	0.00	30.053 
07:30	40.3	40.3	40.3	49	22.7	0	1	248	0.00	30.058 
07:35	40.3	40.3	40.3	49	22.7	0	2	248	0.00	30.058 
07:40	40.3	40.3	40.3	49	22.7	0	2	248	0.00	30.058 
07:45	40.5	40.5	40.5	49	22.9	0	2	248	0.00	30.056 
07:50	40.5	40.5	40.5	49	22.9	0	1	248	0.00	30.056 
07:55	40.5	40.5	40.5	49	22.9	0	3	248	0.00	30.056 
08:00	40.6	40.6	40.6	48	22.5	0	2	248	0.00	30.059 
08:05	40.6	40.6	40.6	49	23.0	0	3	248	0.00	30.059 
08:10	40.8	40.8	40.8	48	22.6	0	2	248	0.00	30.059 
08:15	40.9	40.9	40.9	48	22.7	0	2	248	0.00	30.065 
08:20	41.1	41.1	41.1	48	22.9	0	3	248	0.00	30.065 
08:25	41.2	41.2	41.2	47	22.5	0	2	248	0.00	30.065 
08:30	41.3	41.3	41.3	47	22.6	1	3	248	0.00	30.066 
08:35	41.6	41.6	41.6	47	22.9	0	3	248	0.00	30.066 
08:40	41.8	41.8	41.8	47	23.1	0	4	248	0.00	30.066 
08:45	42.1	42.1	42.1	47	23.3	0	3	248	0.00	30.069 
08:50	42.2	42.2	42.2	46	22.9	0	3	248	0.00	30.069 
08:55	42.3	42.3	42.3	46	23.0	0	2	248	0.00	30.069 
09:00	42.5	42.5	42.5	46	23.2	1	4	248	0.00	30.071 
09:05	42.6	42.6	42.6	46	23.3	0	3	248	0.00	30.071 
09:10	42.6	42.6	42.6	46	23.3	1	3	248	0.00	30.071 
09:15	42.8	42.8	42.8	46	23.5	0	2	248	0.00	30.072 
09:20	42.9	42.9	42.9	46	23.6	1	5	248	0.00	30.072 
09:25	43.2	43.2	43.2	47	24.3	0	2	248	0.00	30.072 
09:30	43.5	43.5	43.5	46	24.1	1	5	248	0.00	30.072 
09:35	43.5	43.5	43.5	45	23.6	1	4	248	0.00	30.072 
09:40	43.5	43.5	43.5	46	24.1	1	3	248	0.00	30.072 
09:45	43.6	43.6	43.6	45	23.7	1	7	248	0.00	30.069 
09:50	43.6	43.6	43.6	44	23.1	1	4	248	0.00	30.069 
09:55	43.8	43.8	43.8	45	23.9	1	7	248	0.00	30.069 
10:00	43.9	43.9	43.9	44	23.4	1	4	248	0.00	30.069 
10:05	44.2	44.2	44.2	45	24.2	1	4	248	0.00	30.069 
10:10	44.5	44.5	44.5	45	24.5	1	5	248	0.00	30.069 
10:15	44.8	44.8	44.8	44	24.2	1	3	248	0.00	30.068 
10:20	45.1	45.1	45.1	43	24.0	1	3	248	0.00	30.068 
10:25	45.2	45.2	45.2	43	24.0	1	3	248	0.00	30.068 
10:30	45.2	45.2	45.2	44	24.6	1	5	248	0.00	30.069 
10:35	45.4	45.4	45.4	43	24.2	0	3	248	0.00	30.069 
10:40	45.5	45.5	45.5	43	24.3	1	4	248	0.00	30.069 
10:45	45.5	45.5	45.5	43	24.3	0	2	248	0.00	30.065 
10:50	45.7	45.7	45.7	43	24.5	1	4	248	0.00	30.065 
10:55	45.8	45.8	45.8	44	25.1	0	3	248	0.00	30.065 
11:00	46.0	46.0	46.0	43	24.8	0	4	248	0.00	30.068 
11:05	46.2	46.2	46.2	43	25.0	1	6	248	0.00	30.068 
11:10	46.2	46.2	46.2	42	24.4	2	8	248	0.00	30.068 
11:15	46.5	46.5	46.5	42	24.7	1	9	248	0.00	30.068 
11:20	46.5	46.5	46.5	42	24.7	1	6	248	0.00	30.068 
11:25	46.7	46.7	46.7	43	25.4	1	3	248	0.00	30.068 
11:30	46.7	46.7	46.7	43	25.4	1	6	248	0.00	30.072 
11:35	46.7	46.7	46.7	42	24.8	2	6	248	0.00	30.072 
11:40	46.7	46.7	46.7	42	24.8	1	6	248	0.00	30.072 
11:45	46.7	46.7	46.7	41	24.3	1	4	248	0.00	30.066 
11:50	46.7	46.7	46.7	42	24.8	1	4	248	0.00	30.066 
11:55	46.8	46.8	46.8	42	24.9	1	3	248	0.00	30.066 
12:00	46.8	46.8	46.8	41	24.4	2	6	248	0.00	30.061 
12:05	47.0	47.0	47.0	42	25.1	1	6	248	0.00	30.061 
12:10	47.3	47.3	47.3	41	24.8	1	3	248	0.00	30.061 
12:15	47.6	47.6	47.6	40	24.5	2	6	248	0.00	30.050 
12:20	47.7	47.7	47.7	41	25.2	1	4	248	0.00	30.050 
12:25	48.0	48.0	48.0	41	25.4	1	5	248	0.00	30.050 
12:30	48.3	48.3	48.3	41	25.7	1	4	248	0.00	30.048 
12:35	48.6	48.6	48.6	40	25.4	1	6	270	0.00	30.048 
12:40	48.6	48.6	48.6	41	26.0	1	7	248	0.00	30.048 
12:45	48.6	48.6	48.6	40	25.4	1	3	270	0.00	30.044 
12:50	48.5	48.5	48.5	40	25.3	1	5	248	0.00	30.044 
12:55	48.5	48.5	48.5	41	25.9	1	3	248	0.00	30.044 
13:00	48.5	48.5	48.5	41	25.9	1	3	248	0.00	30.041 
13:05	48.5	48.5	48.5	42	26.5	1	5	248	0.00	30.041 
13:10	48.3	48.3	48.3	40	25.1	1	4	248	0.00	30.041 
13:15	48.5	48.5	48.5	41	25.9	1	3	248	0.00	30.035 
13:20	48.3	48.3	48.3	40	25.1	1	6	248	0.00	30.035 
13:25	48.3	48.3	48.3	41	25.7	1	5	248	0.00	30.035 
13:30	48.5	48.5	48.5	42	26.5	0	2	248	0.00	30.033 
13:35	48.6	48.6	48.6	42	26.6	0	2	248	0.00	30.033 
13:40	48.6	48.6	48.6	42	26.6	1	6	248	0.00	30.033 
13:45	48.6	48.6	48.6	41	26.0	1	4	248	0.00	30.027 
13:50	48.8	48.8	48.8	42	26.7	0	4	270	0.00	30.027 
13:55	48.9	48.9	48.9	42	26.8	0	2	270	0.00	30.027 
14:00	49.1	49.1	49.1	44	28.1	0	2	270	0.00	30.016 
14:05	49.4	49.4	49.4	44	28.4	0	1	270	0.00	30.016 
14:10	49.4	49.4	49.4	41	26.7	1	4	270	0.00	30.016 
14:15	49.4	49.4	49.4	43	27.9	0	2	248	0.00	30.015 
14:20	49.2	49.2	49.2	41	26.5	1	5	248	0.00	30.015 
14:25	49.6	49.6	49.6	43	28.0	0	3	248	0.00	30.015 
14:30	49.9	49.9	49.9	43	28.3	0	4	248	0.00	30.015 
14:35	50.1	50.1	50.1	42	27.9	1	3	248	0.00	30.015 
14:40	50.2	50.2	50.2	41	27.4	0	2	248	0.00	30.015 
14:45	50.2	50.2	50.2	43	28.6	0	2	248	0.00	30.019 
14:50	50.1	50.1	50.1	41	27.3	1	5	315	0.00	30.019 
14:55	49.8	49.8	49.8	41	27.1	1	5	225	0.00	30.019 
15:00	49.6	49.6	49.6	41	26.9	1	4	248	0.00	30.021 
15:05	49.5	49.5	49.5	42	27.4	1	4	248	0.00	30.021 
15:10	49.4	49.4	49.4	42	27.3	0	3	248	0.00	30.021 
15:15	49.4	49.4	49.4	42	27.3	1	4	248	0.00	30.019 
15:20	49.4	49.4	49.4	43	27.9	1	5	248	0.00	30.019 
15:25	49.1	49.1	49.1	43	27.6	1	3	248	0.00	30.019 
15:30	48.9	48.9	48.9	43	27.4	0	2	90	0.00	30.018 
15:35	48.8	48.8	48.8	43	27.3	1	4	45	0.00	30.018 
15:40	48.6	48.6	48.6	44	27.7	0	4	45	0.00	30.018 
15:45	48.6	48.6	48.6	42	26.6	1	4	248	0.00	30.015 
15:50	48.9	48.9	48.9	42	26.8	1	4	248	0.00	30.015 
15:55	48.9	48.9	48.9	45	28.5	0	1	248	0.00	30.015 
16:00	48.8	48.8	48.8	44	27.9	1	6	270	0.00	30.012 
16:05	48.5	48.5	48.5	44	27.6	0	1	270	0.00	30.012 
16:10	48.2	48.2	48.2	44	27.3	0	4	270	0.00	30.012 
16:15	48.2	48.2	48.2	45	27.9	0	1	270	0.00	30.017 
16:20	48.0	48.0	48.0	44	27.1	0	2	270	0.00	30.017 
16:25	48.0	48.0	48.0	44	27.1	0	1	270	0.00	30.017 
16:30	48.0	48.0	48.0	44	27.1	1	3	270	0.00	30.023 
16:35	48.2	48.2	48.2	44	27.3	0	1	270	0.00	30.023 
16:40	48.2	48.2	48.2	44	27.3	0	3	270	0.00	30.023 
16:45	48.0	48.0	48.0	43	26.6	0	2	270	0.00	30.026 
16:50	48.0	48.0	48.0	43	26.6	0	3	248	0.00	30.026 
16:55	48.0	48.0	48.0	44	27.1	0	1	248	0.00	30.026 
17:00	48.0	48.0	48.0	44	27.1	0	1	248	0.00	30.023 
17:05	48.0	48.0	48.0	44	27.1	0	2	248	0.00	30.023 
17:10	48.0	48.0	48.0	44	27.1	0	2	248	0.00	30.023 
17:15	48.0	48.0	48.0	44	27.1	0	2	248	0.00	30.034 
17:20	48.0	48.0	48.0	44	27.1	0	3	248	0.00	30.034 
17:25	48.0	48.0	48.0	44	27.1	0	4	248	0.00	30.034 
17:30	48.0	48.0	48.0	44	27.1	0	1	248	0.00	30.031 
17:35	48.0	48.0	48.0	43	26.6	0	2	248	0.00	30.031 
17:40	48.0	48.0	48.0	44	27.1	0	1	248	0.00	30.031 
17:45	48.0	48.0	48.0	43	26.6	0	1	248	0.00	30.031 
17:50	47.9	47.9	47.9	45	27.6	0	1	248	0.00	30.031 
17:55	47.7	47.7	47.7	44	26.9	0	2	248	0.00	30.031 
18:00	47.7	47.7	47.7	45	27.4	0	1	248	0.00	30.032 
18:05	47.6	47.6	47.6	45	27.3	0	1	248	0.00	30.032 
18:10	47.4	47.4	47.4	46	27.7	0	1	248	0.00	30.032 
18:15	47.3	47.3	47.3	47	28.1	0	1	248	0.00	30.032 
18:20	47.1	47.1	47.1	47	27.9	0	1	248	0.00	30.032 
18:25	47.1	47.1	47.1	47	27.9	0	2	248	0.00	30.032 
18:30	47.0	47.0	47.0	48	28.3	0	1	248	0.00	30.032 
18:35	46.8	46.8	46.8	48	28.2	0	2	248	0.00	30.032 
18:40	46.7	46.7	46.7	49	28.6	0	1	248	0.00	30.032 
18:45	46.5	46.5	46.5	49	28.4	0	2	248	0.00	30.034 
18:50	46.4	46.4	46.4	49	28.3	0	3	248	0.00	30.034 
18:55	46.2	46.2	46.2	49	28.1	0	1	248	0.00	30.034 
19:00	46.1	46.1	46.1	50	28.5	0	1	248	0.00	30.042 
19:05	46.0	46.0	46.0	50	28.4	0	1	248	0.00	30.042 
19:10	45.8	45.8	45.8	50	28.2	0	1	248	0.00	30.042 
19:15	45.7	45.7	45.7	50	28.1	0	2	248	0.00	30.047 
19:20	45.5	45.5	45.5	50	28.0	0	1	248	0.00	30.047 
19:25	45.2	45.2	45.2	51	28.2	0	0	---	0.00	30.047 
19:30	45.1	45.1	45.1	51	28.1	0	1	248	0.00	30.043 
19:35	44.8	44.8	44.8	52	28.3	0	1	248	0.00	30.043 
19:40	44.5	44.5	44.5	53	28.4	0	1	248	0.00	30.043 
19:45	44.3	44.3	44.3	53	28.3	0	1	248	0.00	30.043 
19:50	44.2	44.2	44.2	54	28.6	0	1	248	0.00	30.043 
19:55	44.1	44.1	44.1	54	28.5	0	2	248	0.00	30.043 
20:00	43.9	43.9	43.9	54	28.3	0	1	248	0.00	30.047 
20:05	43.8	43.8	43.8	54	28.3	0	0	---	0.00	30.047 
20:10	43.6	43.6	43.6	54	28.1	0	0	---	0.00	30.047 
20:15	43.3	43.3	43.3	55	28.2	0	0	---	0.00	30.050 
20:20	43.2	43.2	43.2	55	28.1	0	1	248	0.00	30.050 
20:25	43.1	43.1	43.1	55	28.0	0	1	248	0.00	30.050 
20:30	42.9	42.9	42.9	56	28.3	0	1	248	0.00	30.051 
20:35	42.8	42.8	42.8	57	28.6	0	1	248	0.00	30.051 
20:40	42.6	42.6	42.6	57	28.4	0	0	---	0.00	30.051 
20:45	42.6	42.6	42.6	57	28.4	0	1	248	0.00	30.053 
20:50	42.6	42.6	42.6	57	28.4	0	1	248	0.00	30.053 
20:55	42.5	42.5	42.5	57	28.4	0	1	248	0.00	30.053 
21:00	42.3	42.3	42.3	58	28.6	0	1	248	0.00	30.057 
21:05	42.3	42.3	42.3	58	28.6	0	1	248	0.00	30.057 
21:10	42.2	42.2	42.2	58	28.5	0	1	248	0.00	30.057 
21:15	41.9	41.9	41.9	59	28.6	0	1	248	0.00	30.061 
21:20	41.8	41.8	41.8	59	28.5	0	0	---	0.00	30.061 
21:25	41.5	41.5	41.5	60	28.7	0	0	---	0.00	30.061 
21:30	41.3	41.3	41.3	60	28.5	0	0	---	0.00	30.060 
21:35	41.2	41.2	41.2	61	28.8	0	0	---	0.00	30.060 
21:40	41.1	41.1	41.1	61	28.7	0	0	---	0.00	30.060 
21:45	40.9	40.9	40.9	61	28.5	0	0	---	0.00	30.065 
21:50	40.8	40.8	40.8	62	28.8	0	0	---	0.00	30.065 
21:55	40.6	40.6	40.6	62	28.6	0	0	---	0.00	30.065 
22:00	40.5	40.5	40.5	63	28.9	0	0	---	0.00	30.059 
22:05	40.3	40.3	40.3	63	28.7	0	0	---	0.00	30.059 
22:10	40.2	40.2	40.2	64	29.0	0	0	---	0.00	30.059 
22:15	40.1	40.1	40.1	64	28.9	0	1	248	0.00	30.058 
22:20	39.9	39.9	39.9	65	29.1	0	0	---	0.00	30.058 
22:25	39.9	39.9	39.9	65	29.1	0	0	---	0.00	30.058 
22:30	39.8	39.8	39.8	65	29.0	0	0	---	0.00	30.065 
22:35	39.6	39.6	39.6	65	28.8	0	0	---	0.00	30.065 
22:40	39.3	39.3	39.3	66	28.9	0	0	---	0.00	30.065 
22:45	39.2	39.2	39.2	67	29.2	0	0	---	0.00	30.070 
22:50	39.1	39.1	39.1	67	29.1	0	0	---	0.00	30.070 
22:55	38.9	38.9	38.9	68	29.3	0	0	---	0.00	30.070 
23:00	38.8	38.8	38.8	69	29.5	0	0	---	0.00	30.069 
23:05	38.6	38.6	38.6	69	29.3	0	0	---	0.00	30.069 
23:10	38.6	38.6	38.6	70	29.7	0	0	---	0.00	30.069 
23:15	38.6	38.6	38.6	70	29.7	0	0	---	0.00	30.066 
23:20	38.6	38.6	38.6	70	29.7	0	0	---	0.00	30.066 
23:25	38.6	38.6	38.6	71	30.0	0	0	---	0.00	30.066 
23:30	38.6	38.6	38.6	71	30.0	0	0	---	0.00	30.066 
23:35	38.5	38.5	38.5	71	29.9	0	0	---	0.00	30.066 
23:40	38.3	38.3	38.3	72	30.1	0	0	---	0.00	30.066 
23:45	38.3	38.3	38.3	73	30.4	0	1	248	0.00	30.063 
23:50	38.5	38.5	38.5	73	30.6	0	0	---	0.00	30.063 
23:55	38.5	38.5	38.5	73	30.6	0	1	248	0.00	30.063 

CoCoRaHS
IN-AL-39
A2 Web Hosting
Creative Commons License
GoDaddy
search engine by freefind advanced

loaded 2018-11-17 12:32:03 • last modified 2010-11-18 10:43:29
Privacy PolicyDisclaimer
• wx.awcolley.com is powered by PmWiki v.2002016 •
• all content (unless otherwise noted) © 2018 A W Colley